createdAt,value
2023-05-01T00:05:02.845Z,98646.59
2023-05-01T00:10:05.049Z,98642.16
2023-05-01T00:15:07.647Z,98642.25
2023-05-01T00:20:10.092Z,98628.81
2023-05-01T00:25:11.955Z,98633.28
2023-05-01T00:30:13.908Z,98619.97
2023-05-01T00:35:16.659Z,98624.31
2023-05-01T00:40:18.608Z,98623.13
2023-05-01T00:45:20.536Z,98624.31
2023-05-01T00:50:22.723Z,98611.53
2023-05-01T00:55:25.116Z,98617.06
2023-05-01T01:00:26.900Z,98609.50
2023-05-01T01:05:30.456Z,98603.84
2023-05-01T01:11:08.453Z,98602.13
2023-05-01T01:16:21.723Z,98591.34
2023-05-01T01:21:29.959Z,98601.53
2023-05-01T01:26:56.964Z,98586.63
2023-05-01T01:32:26.989Z,98582.31
2023-05-01T01:37:35.746Z,98574.38
2023-05-01T01:42:52.297Z,98568.63
2023-05-01T01:47:56.638Z,98553.56
2023-05-01T01:53:01.858Z,98556.56
2023-05-01T01:58:05.375Z,98554.00
2023-05-01T02:03:09.384Z,98545.16
2023-05-01T02:08:14.843Z,98545.81
2023-05-01T02:13:18.517Z,98540.59
2023-05-01T02:18:21.358Z,98534.59
2023-05-01T02:23:24.818Z,98533.66
2023-05-01T02:28:29.951Z,98536.84
2023-05-01T02:33:31.682Z,98531.75
2023-05-01T02:38:33.607Z,98529.56
2023-05-01T02:43:37.211Z,98527.53
2023-05-01T02:48:39.934Z,98534.34
2023-05-01T02:53:42.668Z,98519.94
2023-05-01T02:58:53.535Z,98519.00
2023-05-01T03:03:55.563Z,98506.28
2023-05-01T03:08:57.359Z,98500.22
2023-05-01T03:13:59.188Z,98504.38
2023-05-01T03:19:00.989Z,98501.91
2023-05-01T03:24:03.424Z,98492.88
2023-05-01T03:29:06.259Z,98500.78
2023-05-01T03:34:08.147Z,98505.88
2023-05-01T03:39:09.916Z,98491.44
2023-05-01T03:44:37.641Z,98492.06
2023-05-01T03:49:39.537Z,98480.66
2023-05-01T03:54:41.373Z,98480.81
2023-05-01T04:00:11.860Z,98479.34
2023-05-01T04:05:22.218Z,98475.06
2023-05-01T04:10:32.025Z,98480.09
2023-05-01T04:15:39.168Z,98475.13
2023-05-01T04:20:41.059Z,98471.88
2023-05-01T04:25:42.943Z,98463.25
2023-05-01T04:30:48.405Z,98459.94
2023-05-01T04:35:50.245Z,98452.75
2023-05-01T04:40:52.715Z,98459.81
2023-05-01T04:45:54.874Z,98444.78
2023-05-01T04:50:57.665Z,98448.22
2023-05-01T04:56:02.417Z,98451.19
2023-05-01T05:01:05.969Z,98455.38
2023-05-01T05:06:08.011Z,98455.75
2023-05-01T05:11:11.114Z,98455.13
2023-05-01T05:16:32.902Z,98451.31
2023-05-01T05:21:35.321Z,98448.63
2023-05-01T05:26:38.270Z,98449.78
2023-05-01T05:31:40.829Z,98449.78
2023-05-01T05:36:43.103Z,98448.91
2023-05-01T05:41:45.335Z,98448.81
2023-05-01T05:46:47.736Z,98437.16
2023-05-01T05:51:57.101Z,98441.44
2023-05-01T05:56:59.855Z,98436.44
2023-05-01T06:02:02.744Z,98433.41
2023-05-01T06:07:06.394Z,98425.72
2023-05-01T06:12:08.210Z,98422.06
2023-05-01T06:17:10.281Z,98422.31
2023-05-01T06:22:12.392Z,98422.13
2023-05-01T06:27:25.001Z,98420.81
2023-05-01T06:32:26.845Z,98418.19
2023-05-01T06:37:28.745Z,98412.69
2023-05-01T06:42:30.927Z,98405.25
2023-05-01T06:47:36.611Z,98407.50
2023-05-01T06:52:38.462Z,98401.88
2023-05-01T06:57:42.946Z,98408.63
2023-05-01T07:02:47.162Z,98397.03
2023-05-01T07:07:57.941Z,98392.38
2023-05-01T07:13:02.693Z,98388.94
2023-05-01T07:18:06.297Z,98388.47
2023-05-01T07:23:09.850Z,98382.50
2023-05-01T07:28:12.039Z,98373.38
2023-05-01T07:33:13.915Z,98374.28
2023-05-01T07:38:17.028Z,98363.47
2023-05-01T07:43:18.922Z,98372.16
2023-05-01T07:48:20.955Z,98372.22
2023-05-01T07:53:23.034Z,98378.13
2023-05-01T07:58:24.919Z,98373.09
2023-05-01T08:03:29.713Z,98360.31
2023-05-01T08:08:31.664Z,98365.50
2023-05-01T08:13:33.508Z,98367.13
2023-05-01T08:18:35.360Z,98364.38
2023-05-01T08:23:37.249Z,98358.53
2023-05-01T08:28:39.096Z,98359.34
2023-05-01T08:33:44.301Z,98355.00
2023-05-01T08:38:46.120Z,98359.31
2023-05-01T08:43:49.179Z,98353.81
2023-05-01T08:48:53.032Z,98353.81
2023-05-01T08:53:58.320Z,98348.31
2023-05-01T08:59:03.921Z,98348.31
2023-05-01T09:04:07.040Z,98342.75
2023-05-01T09:09:08.813Z,98347.41
2023-05-01T09:14:10.718Z,98337.16
2023-05-01T09:19:12.774Z,98336.25
2023-05-01T09:24:14.649Z,98330.72
2023-05-01T09:29:46.717Z,98312.66
2023-05-01T09:34:50.053Z,98306.41
2023-05-01T09:40:11.674Z,98298.09
2023-05-01T09:45:14.982Z,98286.47
2023-05-01T09:50:31.577Z,98287.38
2023-05-01T09:55:34.905Z,98287.66
2023-05-01T10:00:51.790Z,98282.94
2023-05-01T10:05:56.915Z,98274.25
2023-05-01T10:11:05.416Z,98266.69
2023-05-01T10:16:08.666Z,98269.75
2023-05-01T10:21:10.905Z,98261.50
2023-05-01T10:26:14.447Z,98245.78
2023-05-01T10:31:17.077Z,98242.16
2023-05-01T10:36:36.612Z,98237.44
2023-05-01T10:42:06.402Z,98235.00
2023-05-01T10:47:31.366Z,98231.50
2023-05-01T10:53:20.314Z,98221.09
2023-05-01T10:58:51.453Z,98215.09
2023-05-01T11:03:53.152Z,98190.66
2023-05-01T11:08:55.128Z,98185.66
2023-05-01T11:14:08.382Z,98177.28
2023-05-01T11:19:38.927Z,98169.50
2023-05-01T11:24:41.405Z,98166.34
2023-05-01T11:29:45.299Z,98165.22
2023-05-01T11:34:49.524Z,98146.09
2023-05-01T11:39:52.709Z,98147.16
2023-05-01T11:45:12.855Z,98132.03
2023-05-01T11:55:16.939Z,98108.41
2023-05-01T12:00:41.866Z,98103.44
2023-05-01T12:05:45.210Z,98089.78
2023-05-01T12:10:52.694Z,98081.25
2023-05-01T12:15:56.620Z,98071.78
2023-05-01T12:20:58.855Z,98068.50
2023-05-01T12:26:00.943Z,98065.50
2023-05-01T12:31:05.522Z,98057.84
2023-05-01T12:36:11.930Z,98044.25
2023-05-01T12:41:13.740Z,98054.13
2023-05-01T12:46:16.824Z,98044.19
2023-05-01T12:51:20.083Z,98028.06
2023-05-01T12:56:25.812Z,98025.50
2023-05-01T13:01:29.021Z,98015.38
2023-05-01T13:06:34.178Z,98018.75
2023-05-01T13:11:36.408Z,98017.16
2023-05-01T13:16:46.603Z,98005.16
2023-05-01T13:21:49.696Z,98016.66
2023-05-01T13:27:02.793Z,98004.09
2023-05-01T13:32:06.866Z,98003.38
2023-05-01T13:37:14.341Z,97988.16
2023-05-01T13:42:26.140Z,97992.13
2023-05-01T13:47:28.156Z,97993.81
2023-05-01T13:52:30.028Z,97994.72
2023-05-01T13:57:31.934Z,97983.53
2023-05-01T14:02:33.902Z,97980.47
2023-05-01T14:07:45.221Z,97985.84
2023-05-01T14:12:46.999Z,97982.00
2023-05-01T14:17:50.424Z,97978.78
2023-05-01T14:22:54.448Z,97967.13
2023-05-01T14:27:57.995Z,97964.09
2023-05-01T14:33:08.704Z,97946.31
2023-05-01T14:38:14.861Z,97951.47
2023-05-01T14:43:20.488Z,97948.63
2023-05-01T14:48:24.061Z,97950.03
2023-05-01T14:53:27.432Z,97952.00
2023-05-01T14:58:29.358Z,97953.16
2023-05-01T15:03:31.905Z,97955.13
2023-05-01T15:08:33.766Z,97944.25
2023-05-01T15:13:36.476Z,97952.25
2023-05-01T15:18:38.903Z,97944.06
2023-05-01T15:23:45.203Z,97948.19
2023-05-01T15:28:47.097Z,97950.25
2023-05-01T15:33:48.995Z,97945.63
2023-05-01T15:38:50.930Z,97944.06
2023-05-01T15:43:52.732Z,97934.25
2023-05-01T15:48:54.492Z,97935.78
2023-05-01T15:53:57.041Z,97938.22
2023-05-01T15:59:02.335Z,97917.72
2023-05-01T16:04:04.718Z,97932.03
2023-05-01T16:09:06.534Z,97922.69
2023-05-01T16:14:09.302Z,97917.19
2023-05-01T16:19:16.201Z,97906.50
2023-05-01T16:24:18.192Z,97920.50
2023-05-01T16:29:20.118Z,97914.03
2023-05-01T16:34:25.465Z,97909.72
2023-05-01T16:39:27.336Z,97907.41
2023-05-01T16:44:29.865Z,97907.31
2023-05-01T16:49:32.504Z,97911.28
2023-05-01T16:54:36.415Z,97898.03
2023-05-01T16:59:38.715Z,97909.97
2023-05-01T17:04:41.197Z,97897.31
2023-05-01T17:09:43.053Z,97907.47
2023-05-01T17:14:44.900Z,97907.41
2023-05-01T17:19:46.665Z,97907.88
2023-05-01T17:24:48.533Z,97906.38
2023-05-01T17:29:50.325Z,97916.63
2023-05-01T17:34:52.128Z,97912.75
2023-05-01T17:39:53.937Z,97909.81
2023-05-01T17:44:55.825Z,97910.84
2023-05-01T17:49:57.881Z,97900.84
2023-05-01T17:55:00.439Z,97902.50
2023-05-01T18:00:02.490Z,97903.84
2023-05-01T18:05:14.028Z,97909.84
2023-05-01T18:10:16.799Z,97901.22
2023-05-01T18:15:22.879Z,97907.00
2023-05-01T18:20:25.564Z,97907.97
2023-05-01T18:25:28.238Z,97908.94
2023-05-01T18:30:30.031Z,97921.59
2023-05-01T18:35:32.152Z,97917.03
2023-05-01T18:40:34.022Z,97913.94
2023-05-01T18:45:35.997Z,97913.13
2023-05-01T18:50:37.972Z,97922.19
2023-05-01T18:55:39.888Z,97920.66
2023-05-01T19:00:41.685Z,97924.38
2023-05-01T19:05:43.634Z,97923.34
2023-05-01T19:10:45.654Z,97930.50
2023-05-01T19:15:47.560Z,97926.97
2023-05-01T19:20:49.649Z,97926.22
2023-05-01T19:25:51.448Z,97926.25
2023-05-01T19:30:53.251Z,97930.97
2023-05-01T19:35:55.805Z,97927.41
2023-05-01T19:40:57.616Z,97932.09
2023-05-01T19:45:59.461Z,97938.13
2023-05-01T19:51:01.269Z,97933.44
2023-05-01T19:56:03.066Z,97933.44
2023-05-01T20:01:08.506Z,97943.00
2023-05-01T20:06:10.407Z,97948.63
2023-05-01T20:11:12.281Z,97960.53
2023-05-01T20:16:14.146Z,97948.84
2023-05-01T20:21:15.941Z,97946.84
2023-05-01T20:26:19.080Z,97953.94
2023-05-01T20:31:21.442Z,97955.94
2023-05-01T20:36:25.404Z,97976.28
2023-05-01T20:41:29.168Z,97986.56
2023-05-01T20:46:31.323Z,97994.59
2023-05-01T20:51:33.246Z,98002.22
2023-05-01T20:56:35.114Z,98010.53
2023-05-01T21:01:36.941Z,98020.34
2023-05-01T21:06:38.811Z,98021.56
2023-05-01T21:11:41.080Z,98019.25
2023-05-01T21:16:43.063Z,98040.38
2023-05-01T21:21:44.932Z,98036.88
2023-05-01T21:26:46.803Z,98042.78
2023-05-01T21:31:49.262Z,98052.97
2023-05-01T21:36:51.095Z,98057.63
2023-05-01T21:41:53.150Z,98052.94
2023-05-01T21:46:57.137Z,98044.38
2023-05-01T21:52:00.019Z,98042.03
2023-05-01T21:57:05.362Z,98052.56
2023-05-01T22:02:12.030Z,98043.56
2023-05-01T22:07:13.888Z,98053.72
2023-05-01T22:12:15.673Z,98051.78
2023-05-01T22:17:24.125Z,98063.84
2023-05-01T22:22:26.059Z,98055.97
2023-05-01T22:27:27.902Z,98055.94
2023-05-01T22:32:29.822Z,98054.81
2023-05-01T22:37:31.605Z,98060.63
2023-05-01T22:42:33.431Z,98056.66
2023-05-01T22:47:35.304Z,98062.88
2023-05-01T22:52:37.214Z,98065.63
2023-05-01T22:57:39.056Z,98065.28
2023-05-01T23:02:41.102Z,98077.69
2023-05-01T23:07:44.208Z,98076.09
2023-05-01T23:12:46.012Z,98086.25
2023-05-01T23:17:47.926Z,98077.34
2023-05-01T23:22:50.964Z,98082.44
2023-05-01T23:27:54.901Z,98073.13
2023-05-01T23:32:59.290Z,98072.34
2023-05-01T23:38:01.241Z,98075.88
2023-05-01T23:43:03.190Z,98077.06
2023-05-01T23:48:05.361Z,98070.44
2023-05-01T23:53:08.650Z,98070.03
2023-05-01T23:58:10.636Z,98072.75
